• Join FlightAware (Why Join?)
  • Login
  • US Flag 
06:11PM EDT


 

Airport Tracker/Info


-or-


 

Live Flight TrackerFlight Track Log ✈ SWA1287 ✈ 01-Jul-2013 ✈ KSJC - KLAX

Flight Track Log - Related Links

Times and Time Zones

All times are in EDT time to prevent confusion due to time zone crossing. See the SWA1287 flight status page for this flight to view local times or setup timezone preferences in your user account.

Time Position Orientation Groundspeed Altitude Reporting Facility
EDT Latitude Longitude Course Direction KTS MPH feet Rate Location/Type
01:10AM 37.3942 -121.9614 138° Southeast 174 200 2,600  Level Oakland Center
01:11AM 37.4397 -121.9536 North 199 229 4,300 1,140 Climbing Oakland Center
01:12AM 37.3986 -121.8803 125° Southeast 221 254 5,000 1,680 Climbing Oakland Center
01:13AM 37.3519 -121.8283 138° Southeast 224 258 7,800 2,820 Climbing Oakland Center
01:14AM 37.2972 -121.7692 139° Southeast 255 293 10,800 3,300 Climbing Oakland Center
01:16AM 36.9280 -121.4583 138° Southeast  Level Estimated
01:16AM 37.2275 -121.6886 137° Southeast 321 369 14,500  Level Oakland Center
01:17AM 37.1569 -121.6100 138° Southeast 337 388 18,600 3,780 Climbing Oakland Center
01:18AM 37.0800 -121.5242 138° Southeast 354 407 22,300 3,240 Climbing Oakland Center
01:19AM 37.0017 -121.4364 138° Southeast 371 427 25,300 2,760 Climbing Oakland Center
01:20AM 36.9197 -121.3464 139° Southeast 389 448 28,000 2,460 Climbing Oakland Center
01:21AM 36.8339 -121.2522 139° Southeast 407 468 30,400 2,580 Climbing Oakland Center
01:22AM 36.7467 -121.1603 140° Southeast 412 474 33,300 2,880 Climbing Oakland Center
01:23AM 36.7083 -121.0289 110° East 407 468 36,300 2,640 Climbing Oakland Center
01:24AM 36.7019 -120.8989 93° East 386 444 38,700 1,320 Climbing Oakland Center
01:25AM 36.6889 -120.7650 97° East 397 457 39,000 120 Climbing Oakland Center
01:26AM 36.5975 -120.6928 148° Southeast 389 448 39,000  Level Oakland Center
01:27AM 36.5031 -120.6189 148° Southeast 398 458 39,000  Level Oakland Center
01:28AM 36.3908 -120.5325 148° Southeast 396 456 39,000  Level Oakland Center
01:29AM 36.2956 -120.4628 149° Southeast 396 456 39,000  Level Oakland Center
01:30AM 36.2011 -120.3917 149° Southeast 396 456 39,000  Level Oakland Center
01:31AM 36.1064 -120.3189 148° Southeast 397 457 39,000  Level Oakland Center
01:32AM 36.0103 -120.2461 149° Southeast 402 463 39,000  Level Oakland Center
01:33AM 35.9158 -120.1739 148° Southeast 400 460 39,000  Level Oakland Center
01:34AM 35.8192 -120.1028 149° Southeast 402 463 39,000  Level Oakland Center
01:35AM 35.7228 -120.0325 149° Southeast 402 463 39,000  Level Oakland Center
01:36AM 35.6281 -119.9589 148° Southeast 401 461 39,000  Level Oakland Center
01:37AM 35.5353 -119.8797 145° Southeast 402 463 39,000  Level Oakland Center
01:38AM 35.4428 -119.8011 145° Southeast 403 464 39,000  Level Oakland Center
01:39AM 35.3506 -119.7219 145° Southeast 403 464 39,000 -300 Level Oakland Center
01:40AM 35.2592 -119.6431 145° Southeast 402 463 38,400 -780 Descending Oakland Center
01:41AM 35.1675 -119.5658 145° Southeast 400 460 37,500 -960 Descending Oakland Center
01:42AM 35.0753 -119.4867 145° Southeast 403 464 36,500 -1,020 Descending Oakland Center
01:43AM 34.9817 -119.4078 145° Southeast 408 470 35,500 -1,740 Descending Oakland Center
01:44AM 34.8883 -119.3289 145° Southeast 409 471 33,000 -2,880 Descending Oakland Center
01:45AM 34.7936 -119.2478 145° Southeast 411 473 29,800 -2,880 Descending Oakland Center
01:46AM 34.6997 -119.1681 145° Southeast 412 474 27,200 -2,640 Descending Oakland Center
01:47AM 34.5911 -119.0789 146° Southeast 394 453 24,100 -2,640 Descending Los Angeles Center
01:48AM 34.5053 -119.0067 145° Southeast 372 428 21,600 -2,280 Descending Los Angeles Center
01:49AM 34.4394 -118.9511 145° Southeast 363 418 19,600 -2,400 Descending Los Angeles Center
01:50AM 34.3436 -118.8767 147° Southeast 338 389 16,800 -2,520 Descending Los Angeles Center
01:51AM 34.2536 -118.8450 164° South 335 386 14,500 -1,560 Descending Los Angeles Center
01:52AM 34.1722 -118.8150 163° South 308 354 13,700 -960 Descending Los Angeles Center
01:53AM 34.1019 -118.7878 162° South 270 311 12,600 -1,380 Descending Los Angeles Center
01:54AM 34.0358 -118.7358 147° Southeast 258 297 10,900 -1,320 Descending Los Angeles Center
01:55AM 34.0286 -118.6531 96° East 249 287 10,000 -1,080 Descending Los Angeles Center
01:56AM 34.0203 -118.5689 97° East 254 292 8,800 -1,260 Descending Los Angeles Center
01:57AM 34.0111 -118.4631 96° East 258 297 7,200 -960 Descending Los Angeles Center
01:58AM 34.0197 -118.3861 82° East 239 275 6,700 -720 Descending Los Angeles Center
01:59AM 34.0286 -118.3092 82° East 231 266 5,800 -900 Descending Los Angeles Center
02:00AM 34.0336 -118.2381 85° East 219 252 4,900 -1,020 Descending Los Angeles Center
02:01AM 34.0078 -118.2194 149° Southeast 174 200 3,800 -1,260 Descending Los Angeles Center
02:02AM 33.9836 -118.2611 235° Southwest 155 178 2,400 -1,080 Descending Los Angeles Center
02:03AM 33.9633 -118.3044 241° Southwest 152 175 1,700 -720 Descending Los Angeles Center
02:04AM 33.9578 -118.3494 262° West 143 165 1,000 -660 Descending Los Angeles Center
02:05AM 33.9539 -118.3925 264° West 135 155 400 -480 Descending Los Angeles Center
02:06AM 33.9492 -118.4311 262° West 132 152 100 -300 Descending Los Angeles Center
02:08AM 33.9425 -118.4081 90° East  Level Estimated
02:15AM 33.9425 -118.4081 228° Southwest  Level Estimated